createdAt,value
2023-05-14T00:00:47.892Z,12.45
2023-05-14T00:03:20.582Z,9.18
2023-05-14T00:05:53.117Z,13.48
2023-05-14T00:08:25.559Z,12.75
2023-05-14T00:10:58.076Z,8.27
2023-05-14T00:13:30.550Z,11.07
2023-05-14T00:16:03.258Z,11.25
2023-05-14T00:18:35.804Z,8.05
2023-05-14T00:21:08.317Z,9.32
2023-05-14T00:23:40.824Z,7.93
2023-05-14T00:26:13.229Z,9.43
2023-05-14T00:28:45.762Z,7.78
2023-05-14T00:31:18.259Z,9.57
2023-05-14T00:33:50.815Z,10.30
2023-05-14T00:36:23.218Z,9.57
2023-05-14T00:38:55.953Z,12.25
2023-05-14T00:41:28.413Z,10.00
2023-05-14T00:44:00.927Z,10.65
2023-05-14T00:46:34.634Z,11.10
2023-05-14T00:49:07.148Z,10.38
2023-05-14T00:51:41.503Z,9.25
2023-05-14T00:54:22.676Z,14.85
2023-05-14T00:56:55.637Z,11.02
2023-05-14T00:59:28.132Z,12.35
2023-05-14T01:02:00.714Z,10.82
2023-05-14T01:04:35.179Z,11.80
2023-05-14T01:07:35.456Z,13.70
2023-05-14T01:10:23.531Z,12.02
2023-05-14T01:13:13.014Z,11.35
2023-05-14T01:15:48.091Z,12.68
2023-05-14T01:18:21.977Z,15.38
2023-05-14T01:20:54.649Z,11.25
2023-05-14T01:23:27.121Z,16.02
2023-05-14T01:25:59.644Z,12.57
2023-05-14T01:28:35.656Z,15.80
2023-05-14T01:31:18.350Z,10.75
2023-05-14T01:33:52.356Z,11.68
2023-05-14T01:36:25.466Z,13.27
2023-05-14T01:38:58.879Z,15.40
2023-05-14T01:41:32.834Z,17.75
2023-05-14T01:44:06.030Z,13.73
2023-05-14T01:46:38.765Z,13.05
2023-05-14T01:49:11.261Z,14.15
2023-05-14T01:51:43.948Z,17.48
2023-05-14T01:54:16.399Z,11.18
2023-05-14T01:56:48.793Z,12.82
2023-05-14T01:59:21.253Z,12.55
2023-05-14T02:01:53.839Z,14.13
2023-05-14T02:04:26.539Z,17.27
2023-05-14T02:06:59.075Z,13.10
2023-05-14T02:09:31.555Z,12.60
2023-05-14T02:12:04.267Z,13.43
2023-05-14T02:14:36.973Z,16.77
2023-05-14T02:17:09.454Z,13.35
2023-05-14T02:19:42.182Z,19.23
2023-05-14T02:22:14.596Z,12.85
2023-05-14T02:24:47.012Z,20.58
2023-05-14T02:27:19.487Z,14.52
2023-05-14T02:29:52.759Z,13.35
2023-05-14T02:32:25.418Z,14.88
2023-05-14T02:34:57.883Z,14.25
2023-05-14T02:37:30.387Z,16.63
2023-05-14T02:40:04.149Z,18.45
2023-05-14T02:42:36.538Z,14.10
2023-05-14T02:45:09.256Z,13.40
2023-05-14T02:47:42.156Z,14.18
2023-05-14T02:50:14.607Z,14.13
2023-05-14T02:52:47.065Z,13.15
2023-05-14T02:55:19.688Z,16.85
2023-05-14T02:57:53.241Z,15.43
2023-05-14T03:00:25.840Z,16.55
2023-05-14T03:02:58.845Z,19.77
2023-05-14T03:05:31.608Z,14.95
2023-05-14T03:08:04.041Z,16.00
2023-05-14T03:10:37.057Z,15.35
2023-05-14T03:13:09.507Z,14.40
2023-05-14T03:15:41.957Z,17.77
2023-05-14T03:18:15.034Z,17.95
2023-05-14T03:20:47.814Z,16.25
2023-05-14T03:23:20.251Z,16.48
2023-05-14T03:25:52.747Z,15.35
2023-05-14T03:28:25.863Z,14.63
2023-05-14T03:30:58.522Z,16.50
2023-05-14T03:33:31.184Z,17.05
2023-05-14T03:36:03.839Z,17.73
2023-05-14T03:38:36.818Z,20.75
2023-05-14T03:41:09.238Z,17.00
2023-05-14T03:43:41.676Z,20.35
2023-05-14T03:46:14.088Z,20.23
2023-05-14T03:48:46.554Z,20.17
2023-05-14T03:51:19.095Z,19.92
2023-05-14T03:53:51.494Z,17.45
2023-05-14T03:56:24.862Z,25.67
2023-05-14T03:58:57.332Z,23.60
2023-05-14T04:01:29.775Z,23.80
2023-05-14T04:04:02.249Z,20.88
2023-05-14T04:06:34.788Z,23.85
2023-05-14T04:09:07.428Z,20.17
2023-05-14T04:11:39.892Z,22.60
2023-05-14T04:14:12.292Z,22.77
2023-05-14T04:16:44.735Z,24.83
2023-05-14T04:19:17.362Z,16.48
2023-05-14T04:21:49.984Z,23.52
2023-05-14T04:24:22.551Z,19.85
2023-05-14T04:26:54.989Z,22.50
2023-05-14T04:29:27.450Z,22.73
2023-05-14T04:32:00.451Z,19.58
2023-05-14T04:34:32.972Z,24.52
2023-05-14T04:37:05.488Z,22.58
2023-05-14T04:39:38.332Z,26.98
2023-05-14T04:42:10.869Z,19.10
2023-05-14T04:44:43.309Z,22.52
2023-05-14T04:47:15.765Z,21.67
2023-05-14T04:49:48.451Z,28.13
2023-05-14T04:52:20.970Z,25.88
2023-05-14T04:54:53.550Z,35.22
2023-05-14T04:57:26.068Z,28.48
2023-05-14T04:59:58.459Z,19.10
2023-05-14T05:02:30.935Z,18.33
2023-05-14T05:05:04.241Z,17.85
2023-05-14T05:07:36.749Z,18.05
2023-05-14T05:10:09.533Z,28.88
2023-05-14T05:12:42.032Z,22.52
2023-05-14T05:15:14.596Z,18.05
2023-05-14T05:17:47.138Z,17.88
2023-05-14T05:20:19.611Z,21.52
2023-05-14T05:22:52.235Z,18.20
2023-05-14T05:25:24.706Z,16.83
2023-05-14T05:27:57.123Z,21.33
2023-05-14T05:30:30.202Z,21.48
2023-05-14T05:33:02.771Z,19.13
2023-05-14T05:35:35.324Z,19.27
2023-05-14T05:38:07.791Z,18.45
2023-05-14T05:40:40.240Z,17.40
2023-05-14T05:43:13.834Z,15.88
2023-05-14T05:45:46.324Z,18.65
2023-05-14T05:48:19.001Z,18.92
2023-05-14T05:50:51.859Z,18.35
2023-05-14T05:53:24.306Z,21.48
2023-05-14T05:55:56.737Z,19.92
2023-05-14T05:58:29.544Z,18.48
2023-05-14T06:01:02.453Z,23.65
2023-05-14T06:03:35.385Z,16.38
2023-05-14T06:06:08.112Z,18.35
2023-05-14T06:08:40.600Z,16.48
2023-05-14T06:11:13.148Z,21.20
2023-05-14T06:13:45.587Z,16.20
2023-05-14T06:16:18.173Z,19.35
2023-05-14T06:18:52.299Z,18.00
2023-05-14T06:21:24.993Z,19.10
2023-05-14T06:23:57.456Z,21.60
2023-05-14T06:26:29.919Z,16.83
2023-05-14T06:29:02.449Z,18.73
2023-05-14T06:31:34.846Z,18.92
2023-05-14T06:34:08.096Z,22.73
2023-05-14T06:36:40.674Z,17.67
2023-05-14T06:39:13.235Z,15.15
2023-05-14T06:41:45.685Z,18.60
2023-05-14T06:44:19.509Z,16.33
2023-05-14T06:46:51.998Z,18.17
2023-05-14T06:49:24.468Z,16.40
2023-05-14T06:51:56.900Z,16.58
2023-05-14T06:54:30.050Z,17.00
2023-05-14T06:57:02.460Z,14.85
2023-05-14T06:59:34.866Z,15.63
2023-05-14T07:02:07.348Z,14.27
2023-05-14T07:04:39.859Z,15.82
2023-05-14T07:07:15.385Z,14.68
2023-05-14T07:09:48.248Z,13.75
2023-05-14T07:12:20.754Z,16.15
2023-05-14T07:14:53.327Z,14.98
2023-05-14T07:17:26.045Z,16.63
2023-05-14T07:19:58.553Z,19.35
2023-05-14T07:22:30.988Z,19.17
2023-05-14T07:25:03.486Z,13.23
2023-05-14T07:27:35.961Z,15.95
2023-05-14T07:30:08.738Z,15.02
2023-05-14T07:32:41.161Z,13.45
2023-05-14T07:35:14.163Z,11.90
2023-05-14T07:37:46.798Z,19.73
2023-05-14T07:40:19.376Z,14.43
2023-05-14T07:42:51.805Z,14.32
2023-05-14T07:45:24.288Z,15.23
2023-05-14T07:47:56.723Z,14.02
2023-05-14T07:50:29.160Z,13.38
2023-05-14T07:53:01.575Z,14.55
2023-05-14T07:55:33.972Z,17.50
2023-05-14T07:58:06.611Z,10.15
2023-05-14T08:00:39.169Z,15.25
2023-05-14T08:03:11.631Z,13.98
2023-05-14T08:05:44.138Z,17.95
2023-05-14T08:08:17.054Z,13.75
2023-05-14T08:10:49.558Z,17.27
2023-05-14T08:13:22.118Z,18.25
2023-05-14T08:15:54.806Z,14.23
2023-05-14T08:18:27.214Z,14.93
2023-05-14T08:20:59.685Z,11.95
2023-05-14T08:23:34.121Z,13.88
2023-05-14T08:26:06.664Z,14.18
2023-05-14T08:28:39.321Z,15.63
2023-05-14T08:31:17.477Z,13.73
2023-05-14T08:33:49.950Z,15.05
2023-05-14T08:36:22.487Z,12.50
2023-05-14T08:38:55.272Z,16.65
2023-05-14T08:41:27.659Z,14.10
2023-05-14T08:44:20.549Z,14.55
2023-05-14T08:46:54.633Z,10.95
2023-05-14T08:49:42.644Z,13.48
2023-05-14T08:52:18.003Z,12.85
2023-05-14T08:54:52.693Z,11.55
2023-05-14T08:57:26.571Z,14.65
2023-05-14T08:59:59.230Z,9.60
2023-05-14T09:02:31.733Z,12.43
2023-05-14T09:05:04.371Z,10.02
2023-05-14T09:07:36.837Z,10.32
2023-05-14T09:10:10.324Z,14.80
2023-05-14T09:12:42.811Z,16.52
2023-05-14T09:15:15.345Z,10.07
2023-05-14T09:17:50.969Z,13.93
2023-05-14T09:20:25.111Z,12.75
2023-05-14T09:22:59.979Z,9.35
2023-05-14T09:25:32.964Z,12.23
2023-05-14T09:28:08.421Z,13.07
2023-05-14T09:33:25.882Z,10.30
2023-05-14T09:35:59.880Z,14.65
2023-05-14T09:38:33.876Z,11.35
2023-05-14T09:41:06.346Z,13.43
2023-05-14T09:43:38.820Z,12.23
2023-05-14T09:46:11.308Z,10.35
2023-05-14T09:48:43.804Z,9.32
2023-05-14T09:51:17.643Z,11.48
2023-05-14T09:53:52.861Z,10.77
2023-05-14T09:56:25.282Z,12.05
2023-05-14T09:58:57.705Z,12.43
2023-05-14T10:01:31.038Z,10.93
2023-05-14T10:04:07.858Z,10.15
2023-05-14T10:06:42.137Z,9.18
2023-05-14T10:09:17.451Z,8.82
2023-05-14T10:11:53.874Z,9.20
2023-05-14T10:14:32.709Z,12.23
2023-05-14T10:17:06.385Z,12.20
2023-05-14T10:19:40.895Z,14.40
2023-05-14T10:22:17.969Z,9.52
2023-05-14T10:24:54.187Z,9.18
2023-05-14T10:27:26.901Z,7.22
2023-05-14T10:29:59.334Z,11.18
2023-05-14T10:32:33.118Z,7.18
2023-05-14T10:35:27.197Z,9.18
2023-05-14T10:37:59.650Z,7.88
2023-05-14T10:40:32.141Z,9.18
2023-05-14T10:43:05.156Z,6.10
2023-05-14T10:45:37.687Z,10.82
2023-05-14T10:48:10.600Z,10.25
2023-05-14T10:50:43.494Z,5.63
2023-05-14T10:53:16.063Z,7.38
2023-05-14T10:55:48.525Z,9.43
2023-05-14T10:58:21.074Z,6.93
2023-05-14T11:00:55.952Z,6.35
2023-05-14T11:03:32.646Z,7.32
2023-05-14T11:06:07.041Z,9.07
2023-05-14T11:08:40.235Z,7.32
2023-05-14T11:11:12.855Z,6.75
2023-05-14T11:13:45.845Z,7.28
2023-05-14T11:16:23.544Z,9.60
2023-05-14T11:19:04.384Z,8.30
2023-05-14T11:21:36.926Z,6.32
2023-05-14T11:24:09.468Z,6.57
2023-05-14T11:26:41.995Z,11.02
2023-05-14T11:29:14.489Z,7.68
2023-05-14T11:31:47.624Z,7.47
2023-05-14T11:34:20.073Z,9.95
2023-05-14T11:36:52.510Z,9.77
2023-05-14T11:39:24.956Z,7.25
2023-05-14T11:41:58.291Z,8.90
2023-05-14T11:44:31.929Z,5.70
2023-05-14T11:47:05.060Z,7.53
2023-05-14T11:49:37.965Z,7.20
2023-05-14T11:52:12.983Z,6.13
2023-05-14T11:54:46.016Z,6.72
2023-05-14T11:57:21.075Z,7.82
2023-05-14T11:59:57.655Z,8.52
2023-05-14T12:02:30.316Z,10.43
2023-05-14T12:05:03.049Z,6.28
2023-05-14T12:07:36.101Z,7.10
2023-05-14T12:10:08.962Z,7.32
2023-05-14T12:12:45.992Z,5.70
2023-05-14T12:15:18.454Z,5.30
2023-05-14T12:17:51.781Z,5.47
2023-05-14T12:20:26.164Z,5.88
2023-05-14T12:22:59.062Z,7.53
2023-05-14T12:25:31.562Z,6.05
2023-05-14T12:28:14.874Z,5.78
2023-05-14T12:30:47.411Z,4.65
2023-05-14T12:33:22.851Z,6.03
2023-05-14T12:36:09.998Z,9.95
2023-05-14T12:38:46.392Z,5.28
2023-05-14T12:41:18.880Z,4.50
2023-05-14T12:43:51.509Z,4.60
2023-05-14T12:46:27.040Z,4.47
2023-05-14T12:48:59.696Z,8.07
2023-05-14T12:51:32.572Z,5.82
2023-05-14T12:54:05.055Z,3.55
2023-05-14T12:56:39.035Z,6.97
2023-05-14T12:59:11.541Z,2.85
2023-05-14T13:01:43.982Z,3.13
2023-05-14T13:04:16.585Z,3.10
2023-05-14T13:06:49.162Z,2.70
2023-05-14T13:09:30.631Z,3.92
2023-05-14T13:14:36.408Z,4.25
2023-05-14T13:17:08.948Z,8.73
2023-05-14T13:19:41.514Z,3.17
2023-05-14T13:22:14.569Z,3.50
2023-05-14T13:24:47.020Z,3.15
2023-05-14T13:27:19.434Z,5.07
2023-05-14T13:29:52.061Z,6.22
2023-05-14T13:32:25.880Z,4.30
2023-05-14T13:34:58.395Z,6.68
2023-05-14T13:37:30.854Z,5.90
2023-05-14T13:40:04.423Z,7.03
2023-05-14T13:42:37.533Z,5.85
2023-05-14T13:45:11.627Z,5.25
2023-05-14T13:47:44.404Z,5.28
2023-05-14T13:50:17.035Z,5.03
2023-05-14T13:52:49.701Z,7.22
2023-05-14T13:55:24.541Z,6.22
2023-05-14T13:57:57.361Z,7.72
2023-05-14T14:00:29.796Z,4.80
2023-05-14T14:03:02.428Z,7.20
2023-05-14T14:05:35.965Z,4.45
2023-05-14T14:08:22.771Z,5.22
2023-05-14T14:10:56.128Z,5.72
2023-05-14T14:13:29.524Z,6.38
2023-05-14T14:16:03.502Z,4.97
2023-05-14T14:18:35.997Z,6.18
2023-05-14T14:21:09.308Z,4.30
2023-05-14T14:23:41.865Z,6.10
2023-05-14T14:26:14.446Z,7.93
2023-05-14T14:28:47.174Z,4.30
2023-05-14T14:31:20.835Z,7.45
2023-05-14T14:33:53.321Z,5.78
2023-05-14T14:36:25.714Z,9.95
2023-05-14T14:38:58.322Z,3.67
2023-05-14T14:41:30.808Z,8.38
2023-05-14T14:44:03.464Z,5.60
2023-05-14T14:46:36.121Z,6.40
2023-05-14T14:49:09.135Z,5.82
2023-05-14T14:51:42.375Z,7.10
2023-05-14T14:54:14.862Z,6.28
2023-05-14T14:56:49.122Z,4.15
2023-05-14T14:59:21.573Z,11.60
2023-05-14T15:01:53.946Z,6.88
2023-05-14T15:04:26.544Z,5.25
2023-05-14T15:06:59.209Z,6.68
2023-05-14T15:09:32.287Z,4.25
2023-05-14T15:12:09.418Z,6.13
2023-05-14T15:14:42.028Z,10.52
2023-05-14T15:17:14.545Z,7.78
2023-05-14T15:25:49.549Z,6.15
2023-05-14T15:28:26.892Z,5.47
2023-05-14T15:31:02.689Z,4.15
2023-05-14T15:33:38.386Z,4.15
2023-05-14T15:36:15.543Z,6.63
2023-05-14T15:38:50.867Z,6.70
2023-05-14T15:41:36.899Z,7.63
2023-05-14T15:44:15.748Z,4.57
2023-05-14T15:46:57.815Z,4.32
2023-05-14T15:49:32.351Z,5.30
2023-05-14T15:52:05.356Z,6.97
2023-05-14T15:54:53.220Z,5.53
2023-05-14T15:57:28.793Z,7.00
2023-05-14T16:00:05.016Z,5.50
2023-05-14T16:02:41.442Z,5.18
2023-05-14T16:05:27.440Z,9.55
2023-05-14T16:08:03.005Z,5.70
2023-05-14T16:10:46.644Z,5.32
2023-05-14T16:13:25.171Z,6.63
2023-05-14T16:15:59.684Z,8.30
2023-05-14T16:18:33.692Z,6.10
2023-05-14T16:21:07.426Z,6.90
2023-05-14T16:23:39.983Z,5.55
2023-05-14T16:26:12.465Z,7.65
2023-05-14T16:28:45.006Z,5.72
2023-05-14T16:31:17.518Z,7.65
2023-05-14T16:33:49.960Z,6.15
2023-05-14T16:36:26.453Z,5.18
2023-05-14T16:41:37.018Z,11.43
2023-05-14T16:44:12.502Z,8.73
2023-05-14T16:46:45.038Z,6.82
2023-05-14T16:49:17.539Z,7.75
2023-05-14T16:51:53.044Z,9.27
2023-05-14T16:54:25.647Z,9.85
2023-05-14T16:56:58.125Z,5.47
2023-05-14T16:59:30.654Z,8.15
2023-05-14T17:02:03.518Z,5.93
2023-05-14T17:04:39.337Z,7.03
2023-05-14T17:09:47.181Z,8.65
2023-05-14T17:12:19.698Z,6.07
2023-05-14T17:14:52.795Z,11.93
2023-05-14T17:17:25.367Z,12.98
2023-05-14T17:19:58.032Z,10.38
2023-05-14T17:22:30.515Z,16.58
2023-05-14T17:25:03.322Z,9.80
2023-05-14T17:27:36.202Z,13.43
2023-05-14T17:30:09.133Z,9.30
2023-05-14T17:32:41.781Z,17.00
2023-05-14T17:35:14.357Z,20.50
2023-05-14T17:37:46.852Z,12.43
2023-05-14T17:40:19.446Z,13.02
2023-05-14T17:42:51.916Z,15.07
2023-05-14T17:45:24.813Z,11.43
2023-05-14T17:47:57.676Z,10.40
2023-05-14T17:50:30.307Z,13.13
2023-05-14T17:53:02.723Z,10.95
2023-05-14T17:55:42.431Z,11.95
2023-05-14T17:58:15.944Z,12.20
2023-05-14T18:00:50.675Z,16.55
2023-05-14T18:03:23.186Z,12.35
2023-05-14T18:05:55.786Z,11.20
2023-05-14T18:08:28.267Z,13.20
2023-05-14T18:11:00.811Z,13.73
2023-05-14T18:13:33.363Z,18.95
2023-05-14T18:16:05.880Z,15.35
2023-05-14T18:18:38.425Z,16.73
2023-05-14T18:21:10.921Z,12.93
2023-05-14T18:23:43.452Z,12.90
2023-05-14T18:26:16.127Z,10.30
2023-05-14T18:28:48.970Z,16.88
2023-05-14T18:31:21.531Z,11.40
2023-05-14T18:33:54.269Z,13.20
2023-05-14T18:36:26.757Z,14.27
2023-05-14T18:38:59.226Z,12.52
2023-05-14T18:41:31.699Z,14.32
2023-05-14T18:44:04.221Z,11.98
2023-05-14T18:46:36.922Z,11.95
2023-05-14T18:49:09.458Z,10.25
2023-05-14T18:51:42.064Z,16.80
2023-05-14T18:54:14.581Z,21.02
2023-05-14T18:56:47.774Z,13.88
2023-05-14T18:59:20.539Z,12.23
2023-05-14T19:01:53.089Z,11.15
2023-05-14T19:04:26.467Z,12.80
2023-05-14T19:06:58.921Z,19.70
2023-05-14T19:09:31.425Z,21.35
2023-05-14T19:12:04.100Z,17.60
2023-05-14T19:14:36.597Z,14.90
2023-05-14T19:17:09.057Z,11.10
2023-05-14T19:19:41.699Z,14.07
2023-05-14T19:22:14.090Z,14.45
2023-05-14T19:24:46.534Z,16.70
2023-05-14T19:27:18.955Z,18.73
2023-05-14T19:29:51.555Z,16.15
2023-05-14T19:32:23.970Z,14.02
2023-05-14T19:34:56.577Z,16.80
2023-05-14T19:37:31.853Z,16.23
2023-05-14T19:40:04.858Z,18.65
2023-05-14T19:42:37.275Z,19.50
2023-05-14T19:45:10.185Z,16.33
2023-05-14T19:47:42.944Z,19.52
2023-05-14T19:50:15.887Z,14.38
2023-05-14T19:52:48.467Z,15.68
2023-05-14T19:55:21.034Z,12.80
2023-05-14T19:57:53.493Z,14.68
2023-05-14T20:00:26.487Z,14.82
2023-05-14T20:02:59.719Z,14.30
2023-05-14T20:05:34.221Z,18.10
2023-05-14T20:08:09.318Z,17.10
2023-05-14T20:10:44.502Z,21.70
2023-05-14T20:13:16.938Z,13.60
2023-05-14T20:15:49.487Z,16.83
2023-05-14T20:18:22.073Z,15.13
2023-05-14T20:20:54.796Z,18.55
2023-05-14T20:23:30.106Z,18.52
2023-05-14T20:26:04.112Z,17.52
2023-05-14T20:28:36.642Z,13.57
2023-05-14T20:31:09.650Z,15.68
2023-05-14T20:33:42.302Z,14.80
2023-05-14T20:36:16.748Z,15.50
2023-05-14T20:38:49.297Z,26.05
2023-05-14T20:41:22.457Z,28.88
2023-05-14T20:43:54.901Z,17.63
2023-05-14T20:46:30.083Z,16.90
2023-05-14T20:49:02.619Z,17.48
2023-05-14T20:51:35.061Z,23.08
2023-05-14T20:54:07.446Z,17.90
2023-05-14T20:56:39.894Z,16.27
2023-05-14T20:59:12.329Z,21.70
2023-05-14T21:01:47.137Z,16.77
2023-05-14T21:04:19.780Z,15.35
2023-05-14T21:06:52.816Z,21.85
2023-05-14T21:09:27.138Z,14.02
2023-05-14T21:11:59.841Z,20.17
2023-05-14T21:14:32.350Z,19.83
2023-05-14T21:17:05.125Z,14.60
2023-05-14T21:19:37.654Z,20.95
2023-05-14T21:22:10.242Z,16.95
2023-05-14T21:24:44.970Z,16.30
2023-05-14T21:27:17.484Z,13.45
2023-05-14T21:29:49.937Z,19.58
2023-05-14T21:32:22.502Z,16.55
2023-05-14T21:34:55.187Z,15.77
2023-05-14T21:37:27.904Z,18.90
2023-05-14T21:40:00.580Z,16.92
2023-05-14T21:42:33.067Z,16.42
2023-05-14T21:45:06.238Z,19.65
2023-05-14T21:47:39.213Z,18.48
2023-05-14T21:50:13.017Z,17.95
2023-05-14T21:52:48.258Z,20.83
2023-05-14T21:55:20.934Z,17.70
2023-05-14T21:57:53.519Z,16.20
2023-05-14T22:00:26.027Z,22.17
2023-05-14T22:02:58.876Z,18.25
2023-05-14T22:05:31.384Z,16.70
2023-05-14T22:08:03.989Z,18.17
2023-05-14T22:10:36.693Z,21.10
2023-05-14T22:13:09.106Z,18.75
2023-05-14T22:15:41.555Z,24.13
2023-05-14T22:18:15.489Z,19.00
2023-05-14T22:20:48.403Z,24.65
2023-05-14T22:23:20.873Z,19.55
2023-05-14T22:25:53.404Z,19.00
2023-05-14T22:28:25.870Z,16.55
2023-05-14T22:30:59.931Z,22.45
2023-05-14T22:33:33.193Z,20.08
2023-05-14T22:36:06.958Z,20.98
2023-05-14T22:38:41.182Z,18.92
2023-05-14T22:41:13.756Z,19.38
2023-05-14T22:43:48.586Z,23.48
2023-05-14T22:46:21.334Z,18.70
2023-05-14T22:48:53.859Z,23.10
2023-05-14T22:51:26.324Z,21.00
2023-05-14T22:53:58.701Z,22.92
2023-05-14T22:56:31.614Z,21.25
2023-05-14T22:59:04.442Z,24.50
2023-05-14T23:01:36.904Z,25.42
2023-05-14T23:04:09.521Z,22.80
2023-05-14T23:06:41.984Z,22.70
2023-05-14T23:09:14.398Z,21.10
2023-05-14T23:11:46.964Z,19.92
2023-05-14T23:14:19.599Z,23.02
2023-05-14T23:16:52.087Z,25.65
2023-05-14T23:19:24.652Z,22.58
2023-05-14T23:21:58.302Z,25.83
2023-05-14T23:24:30.851Z,22.40
2023-05-14T23:27:03.387Z,20.13
2023-05-14T23:29:35.821Z,26.17
2023-05-14T23:32:09.539Z,24.83
2023-05-14T23:34:41.958Z,22.77
2023-05-14T23:37:14.576Z,27.88
2023-05-14T23:39:47.140Z,23.08
2023-05-14T23:42:20.291Z,30.15
2023-05-14T23:44:52.689Z,19.83
2023-05-14T23:47:25.270Z,25.15
2023-05-14T23:49:57.886Z,24.65
2023-05-14T23:52:30.392Z,31.08
2023-05-14T23:55:03.017Z,25.83
2023-05-14T23:57:36.005Z,24.98
